Flight Track Log - Related Links

Times and Time Zones

All times are in EDT time to prevent confusion due to time zone crossing. See the N379CD flight status page for this flight to view local times or setup timezone preferences in your user account.

Time Position Orientation Groundspeed Altitude Reporting Facility
EDT Latitude Longitude Course Direction KTS MPH feet Rate Location/Type
Thu 12:49:00 43.4300 -84.3528 196° South  Level Estimated
Thu 12:50:00 43.3832 -84.3699 195° South  Level FlightAware
Thu 12:51:00 43.3364 -84.3869 195° South  Level FlightAware
Thu 12:52:00 43.2896 -84.4040 195° South  Level FlightAware
Thu 12:53:00 43.2427 -84.4210 195° South  Level FlightAware
Thu 12:54:00 43.1959 -84.4380 195° South  Level FlightAware
Thu 12:55:00 43.1491 -84.4549 195° South  Level FlightAware
Thu 12:56:00 43.1025 -84.4730 196° South  Level Estimated
Thu 12:57:00 43.0559 -84.4910 196° South  Level FlightAware
Thu 12:58:00 43.0093 -84.5090 196° South  Level FlightAware
Thu 12:59:00 42.9626 -84.5270 196° South  Level FlightAware
Thu 13:00:00 42.9160 -84.5449 196° South  Level FlightAware
Thu 13:01:00 42.8694 -84.5628 196° South  Level FlightAware
Thu 13:02:00 42.8228 -84.5807 196° South  Level FlightAware
Thu 13:02:44 42.7236 -84.6444 196° South 189 217 4,000  Level Chicago Center
Thu 13:03:00 42.7761 -84.5985 196° South  Level FlightAware
Thu 13:03:46 42.6614 -84.6636 193° South 193 222 4,000  Level Chicago Center
Thu 13:04:00 42.7295 -84.6163 196° South  Level FlightAware
Thu 13:04:48 42.6119 -84.6842 197° South 189 217 4,000  Level Chicago Center
Thu 13:05:00 42.6829 -84.6341 196° South  Level FlightAware
Thu 13:05:50 42.5600 -84.7036 195° South 191 220 4,000  Level Chicago Center
Thu 13:06:00 42.6362 -84.6519 196° South  Level FlightAware
Thu 13:06:52 42.5083 -84.7239 196° South 192 221 4,000  Level Chicago Center
Thu 13:07:00 42.5896 -84.6696 196° South  Level FlightAware
Thu 13:07:54 42.4581 -84.7417 195° South 190 219 4,000  Level Chicago Center
Thu 13:08:00 42.5429 -84.6873 196° South  Level FlightAware
Thu 13:08:57 42.4078 -84.7603 195° South 189 217 4,000  Level Chicago Center
Thu 13:09:59 42.3483 -84.7819 195° South 187 215 4,000  Level Chicago Center
Thu 13:11:01 42.2994 -84.7997 195° South 185 213 4,000  Level Chicago Center
Thu 13:12:03 42.2506 -84.8183 196° South 183 211 4,000  Level Chicago Center
Thu 13:13:05 42.2025 -84.8358 195° South 181 208 4,000  Level Chicago Center
Thu 13:14:07 42.1550 -84.8539 196° South 179 206 4,000  Level Chicago Center
Thu 13:15:09 42.1081 -84.8703 195° South 177 204 4,000  Level Chicago Center
Thu 13:16:11 42.0522 -84.8914 196° South 175 201 4,000  Level Chicago Center
Thu 13:17:13 42.0064 -84.9081 195° South 173 199 4,000  Level Chicago Center
Thu 13:18:15 41.9575 -84.9269 196° South 176 203 4,000  Level Chicago Center
Thu 13:19:18 41.9089 -84.9436 194° South 179 206 4,000  Level Chicago Center
Thu 13:20:20 41.8611 -84.9606 195° South 179 206 4,000  Level Chicago Center
Thu 13:21:22 41.8128 -84.9792 196° South 179 206 4,000  Level Chicago Center
Thu 13:22:24 41.7561 -84.9994 195° South 178 205 4,000  Level Chicago Center
Thu 13:23:26 41.7106 -85.0167 196° South 174 200 4,000  Level Chicago Center
Thu 13:24:28 41.6656 -85.0328 195° South 170 196 4,000  Level Chicago Center
Thu 13:25:30 41.6219 -85.0486 195° South 166 191 4,000  Level Chicago Center
Thu 13:26:32 41.5778 -85.0650 196° South 164 189 4,000  Level Chicago Center
Thu 13:27:34 41.5333 -85.0814 195° South 165 190 4,000  Level Chicago Center
Thu 13:28:37 41.4792 -85.1000 194° South 166 191 4,000  Level Chicago Center
Thu 13:29:39 41.4344 -85.1169 196° South 166 191 4,000  Level Chicago Center
Thu 13:30:41 41.3900 -85.1331 195° South 166 191 4,000  Level Chicago Center
Thu 13:31:43 41.3453 -85.1492 195° South 166 191 4,000  Level Chicago Center
Thu 13:32:45 41.3017 -85.1650 195° South 164 189 4,000  Level Chicago Center
Thu 13:33:47 41.2575 -85.1803 195° South 164 189 4,000  Level Chicago Center
Thu 13:34:49 41.2089 -85.1978 195° South 164 189 4,000 48 Level Chicago Center
Thu 13:35:51 41.1603 -85.2150 194° South 164 189 4,100  Climbing Chicago Center
Thu 13:36:00 41.1547 -85.2160 194° South  Level FlightAware
Thu 13:36:53 41.1156 -85.2322 196° South 165 190 4,000  Level Chicago Center
Thu 13:37:56 41.0753 -85.2594 207° Southwest 164 189 4,000  Level Chicago Center
Thu 13:40:00 41.0117 -85.3444 225° Southwest 162 186 4,000  Level Chicago Center
Thu 13:41:02 40.9794 -85.3847 223° Southwest 161 185 4,000  Level Chicago Center
Thu 13:42:04 40.9336 -85.4211 211° Southwest 161 185 4,000  Level Chicago Center
Thu 13:43:00 40.8338 -85.3231 194° South  Level FlightAware
Thu 13:43:06 40.8914 -85.4444 203° Southwest 163 188 4,000  Level Chicago Center
Thu 13:44:08 40.8481 -85.4697 204° Southwest 166 191 4,000  Level Chicago Center
Thu 13:45:10 40.8061 -85.4942 204° Southwest 166 191 4,000  Level Chicago Center
Thu 13:46:16 40.7533 -85.5267 205° Southwest 167 192 4,000  Level Chicago Center
Thu 13:47:15 40.7133 -85.5481 202° Southwest 166 191 4,000  Level Chicago Center
Thu 13:48:17 40.6683 -85.5775 206° Southwest 166 191 4,000  Level Chicago Center
Thu 13:49:18 40.6281 -85.6003 203° Southwest 166 191 4,000  Level Chicago Center
Thu 13:50:19 40.5836 -85.6256 203° Southwest 166 191 4,000  Level Chicago Center
Thu 13:51:23 40.5394 -85.6497 203° Southwest 167 192 4,000  Level Chicago Center
Thu 13:52:20 40.4989 -85.6764 207° Southwest 167 192 4,000  Level Chicago Center
Thu 13:53:27 40.4519 -85.6919 194° South 168 193 4,000  Level Chicago Center
Thu 13:54:29 40.4047 -85.7033 190° South 170 196 4,000  Level Chicago Center
Thu 13:55:31 40.3575 -85.7183 194° South 172 198 4,000  Level Chicago Center
Thu 13:56:33 40.3114 -85.7311 192° South 171 197 4,000  Level Chicago Center
Thu 13:57:36 40.2558 -85.7475 193° South 170 196 4,000  Level Chicago Center
Thu 13:58:38 40.2086 -85.7625 194° South 172 198 4,000  Level Chicago Center
Thu 13:59:40 40.1631 -85.7758 193° South 171 197 4,000  Level Chicago Center
Thu 14:01:32 40.0667 -85.8000 191° South 170 196 4,000  Level Indianapolis TRACON
Thu 14:02:32 40.0333 -85.8167 201° Southwest 171 197 4,000  Level Indianapolis TRACON
Thu 14:03:26 39.9878 -85.8289 192° South 170 196 4,000  Level Indianapolis Center
Thu 14:04:28 39.9422 -85.8425 193° South 169 194 4,000  Level Indianapolis Center
Thu 14:05:30 39.8969 -85.8556 192° South 168 193 4,000  Level Indianapolis Center
Thu 14:06:32 39.8522 -85.8681 192° South 166 191 4,000  Level Indianapolis Center
Thu 14:07:33 39.8086 -85.8869 198° South 165 190 4,000  Level Indianapolis Center
Thu 14:08:35 39.7622 -85.9272 214° Southwest 166 191 4,000  Level Indianapolis Center
Thu 14:09:37 39.7231 -85.9594 212° Southwest 166 191 4,000  Level Indianapolis Center
Thu 14:10:39 39.6836 -85.9917 212° Southwest 166 191 4,000  Level Indianapolis Center
Thu 14:11:40 39.6439 -86.0239 212° Southwest 167 192 4,000  Level Indianapolis Center
Thu 14:12:42 39.6056 -86.0564 213° Southwest 166 191 4,000  Level Indianapolis Center
Thu 14:13:44 39.5683 -86.0914 216° Southwest 165 190 4,000  Level Indianapolis Center
Thu 14:14:46 39.5389 -86.1367 230° Southwest 171 197 4,000  Level Indianapolis Center
Thu 14:15:47 39.5083 -86.1797 227° Southwest 165 190 4,000  Level Indianapolis Center
Thu 14:16:49 39.4775 -86.2236 228° Southwest 164 189 4,000  Level Indianapolis Center
Thu 14:17:51 39.4419 -86.2756 228° Southwest 162 186 4,000  Level Indianapolis Center
Thu 14:18:53 39.3964 -86.2861 190° South 168 193 4,000  Level Indianapolis Center
Thu 14:19:54 39.3489 -86.2967 190° South 169 194 4,000  Level Indianapolis Center
Thu 14:20:56 39.3033 -86.3072 190° South 168 193 4,000  Level Indianapolis Center
Thu 14:21:58 39.2569 -86.3158 188° South 168 193 4,000  Level Indianapolis Center
Thu 14:23:00 39.2111 -86.3233 187° South 167 192 4,000  Level Indianapolis Center
Thu 14:24:01 39.1647 -86.3317 188° South 166 191 4,000  Level Indianapolis Center
Thu 14:25:03 39.1097 -86.3444 190° South 167 192 4,000  Level Indianapolis Center
Thu 14:26:05 39.0631 -86.3536 189° South 168 193 4,000  Level Indianapolis Center
Thu 14:27:07 39.0167 -86.3631 189° South 169 194 4,000  Level Indianapolis Center
Thu 14:28:09 38.9703 -86.3708 187° South 167 192 4,000  Level Indianapolis Center
Thu 14:29:10 38.9247 -86.3803 189° South 166 191 4,000  Level Indianapolis Center
Thu 14:30:12 38.8767 -86.3900 189° South 163 188 4,000  Level Indianapolis Center
Thu 14:31:14 38.8317 -86.3975 187° South 162 186 4,000  Level Indianapolis Center
Thu 14:32:16 38.7858 -86.4067 189° South 165 190 4,000  Level Indianapolis Center
Thu 14:33:18 38.7383 -86.4147 188° South 169 194 4,000  Level Indianapolis Center
Thu 14:34:20 38.6919 -86.4239 189° South 169 194 4,000  Level Indianapolis Center
Thu 14:35:21 38.6356 -86.4350 189° South 169 194 4,000  Level Indianapolis Center
Thu 14:36:23 38.5881 -86.4436 188° South 171 197 4,000  Level Indianapolis Center
Thu 14:37:25 38.5403 -86.4531 189° South 172 198 4,000  Level Indianapolis Center
Thu 14:38:27 38.4928 -86.4619 188° South 172 198 4,000  Level Indianapolis Center
Thu 14:39:29 38.4456 -86.4711 189° South 171 197 4,000  Level Indianapolis Center
Thu 14:40:31 38.3986 -86.4800 188° South 170 196 4,000  Level Indianapolis Center
Thu 14:41:33 38.3525 -86.4881 188° South 168 193 4,000  Level Indianapolis Center
Thu 14:42:35 38.3056 -86.4975 189° South 168 193 4,000  Level Indianapolis Center
Thu 14:43:37 38.2481 -86.5086 189° South 170 196 4,000  Level Indianapolis Center
Thu 14:44:39 38.1997 -86.5181 189° South 173 199 4,000  Level Indianapolis Center
Thu 14:45:41 38.1508 -86.5272 188° South 174 200 4,000  Level Indianapolis Center
Thu 14:46:43 38.1036 -86.5358 188° South 173 199 4,000  Level Indianapolis Center
Thu 14:47:45 38.0553 -86.5444 188° South 173 199 4,000 48 Level Indianapolis Center
Thu 14:48:47 38.0078 -86.5525 188° South 172 198 4,100 48 Climbing Indianapolis Center
Thu 14:49:49 37.9606 -86.5617 189° South 171 197 4,100  Level Indianapolis Center
Thu 14:50:51 37.9136 -86.5706 188° South 171 197 4,100  Level Indianapolis Center
Thu 14:51:53 37.8667 -86.5800 189° South 170 196 4,100  Level Indianapolis Center
Thu 14:52:55 37.8103 -86.5900 188° South 169 194 4,100  Level Indianapolis Center
Thu 14:53:57 37.7633 -86.5986 188° South 169 194 4,100 -48 Level Indianapolis Center
Thu 14:54:59 37.7169 -86.6067 188° South 169 194 4,000  Descending Indianapolis Center
Thu 14:56:01 37.6697 -86.6167 190° South 169 194 4,100 48 Climbing Indianapolis Center
Thu 14:57:03 37.6228 -86.6256 189° South 169 194 4,100 -48 Level Indianapolis Center
Thu 14:58:05 37.5775 -86.6331 187° South 165 190 4,000  Descending Indianapolis Center
Thu 14:59:07 37.5322 -86.6417 189° South 163 188 4,100 48 Climbing Indianapolis Center
Thu 15:00:09 37.4772 -86.6506 187° South 165 190 4,100  Level Indianapolis Center
Thu 15:01:11 37.4308 -86.6619 191° South 168 193 4,100  Level Indianapolis Center
Thu 15:02:13 37.3822 -86.6689 186° South 173 199 4,100  Level Indianapolis Center
Thu 15:03:15 37.3350 -86.6772 188° South 171 197 4,100  Level Indianapolis Center
Thu 15:04:18 37.2881 -86.6872 190° South 170 196 4,100  Level Indianapolis Center
Thu 15:05:20 37.2356 -86.6953 187° South 170 196 4,100  Level Indianapolis Center
Thu 15:06:22 37.1881 -86.7042 188° South 171 197 4,100  Level Indianapolis Center
Thu 15:07:24 37.1406 -86.7133 189° South 171 197 4,100 -48 Level Indianapolis Center
Thu 15:08:26 37.0944 -86.7211 188° South 168 193 4,000  Descending Indianapolis Center
Thu 15:09:28 37.0478 -86.7311 190° South 167 192 4,100 48 Climbing Indianapolis Center
Thu 15:10:30 37.0000 -86.7397 188° South 171 197 4,100 -48 Level Indianapolis Center
Thu 15:11:32 36.9439 -86.7503 189° South 173 199 4,000 -48 Descending Indianapolis Center
Thu 15:12:34 36.8950 -86.7600 189° South 174 200 4,000  Level Indianapolis Center
Thu 15:13:08 36.8714 -86.7650 190° South 180 207 4,000 64 Level Memphis Center
Thu 15:14:08 36.8239 -86.7725 187° South 180 207 4,100 100 Climbing Memphis Center

Login

Don't have an account? Register now (free) for customized features, flight alerts, and more!